createdAt,value
2022-09-21T00:00:17.643Z,100951.81
2022-09-21T00:00:49.282Z,100955.22
2022-09-21T00:01:27.394Z,100951.94
2022-09-21T00:01:58.973Z,100950.25
2022-09-21T00:02:30.655Z,100949.53
2022-09-21T00:03:02.144Z,100953.03
2022-09-21T00:03:34.020Z,100951.25
2022-09-21T00:04:05.650Z,100951.25
2022-09-21T00:04:37.275Z,100953.03
2022-09-21T00:05:08.954Z,100953.03
2022-09-21T00:05:40.503Z,100947.09
2022-09-21T00:06:13.029Z,100952.31
2022-09-21T00:06:44.606Z,100949.66
2022-09-21T00:07:16.105Z,100945.19
2022-09-21T00:07:47.660Z,100954.16
2022-09-21T00:08:19.219Z,100957.53
2022-09-21T00:08:50.681Z,100957.53
2022-09-21T00:09:22.146Z,100948.81
2022-09-21T00:09:53.739Z,100954.16
2022-09-21T00:10:25.217Z,100955.13
2022-09-21T00:10:56.777Z,100953.19
2022-09-21T00:11:28.879Z,100953.31
2022-09-21T00:12:00.398Z,100954.41
2022-09-21T00:12:31.917Z,100952.69
2022-09-21T00:13:03.577Z,100949.31
2022-09-21T00:13:35.148Z,100949.56
2022-09-21T00:14:08.096Z,100951.38
2022-09-21T00:14:39.661Z,100944.22
2022-09-21T00:15:11.225Z,100956.84
2022-09-21T00:15:43.020Z,100952.47
2022-09-21T00:16:17.281Z,100951.03
2022-09-21T00:16:48.868Z,100953.47
2022-09-21T00:17:20.367Z,100948.13
2022-09-21T00:17:55.218Z,100954.31
2022-09-21T00:18:26.788Z,100949.81
2022-09-21T00:18:58.406Z,100953.59
2022-09-21T00:19:29.900Z,100957.09
2022-09-21T00:20:01.699Z,100949.22
2022-09-21T00:20:33.283Z,100948.38
2022-09-21T00:21:08.405Z,100948.38
2022-09-21T00:21:39.954Z,100953.47
2022-09-21T00:22:11.529Z,100951.75
2022-09-21T00:22:43.108Z,100956.13
2022-09-21T00:23:14.747Z,100958.06
2022-09-21T00:23:46.319Z,100955.41
2022-09-21T00:24:17.870Z,100953.84
2022-09-21T00:24:49.525Z,100951.41
2022-09-21T00:25:21.066Z,100955.03
2022-09-21T00:25:52.694Z,100957.00
2022-09-21T00:26:25.078Z,100953.38
2022-09-21T00:26:56.651Z,100958.47
2022-09-21T00:27:28.192Z,100958.59
2022-09-21T00:27:59.740Z,100956.88
2022-09-21T00:28:31.279Z,100957.84
2022-09-21T00:29:02.959Z,100952.50
2022-09-21T00:29:34.542Z,100956.88
2022-09-21T00:30:06.360Z,100954.22
2022-09-21T00:30:37.976Z,100953.38
2022-09-21T00:31:10.034Z,100948.34
2022-09-21T00:31:41.603Z,100958.06
2022-09-21T00:32:13.095Z,100957.94
2022-09-21T00:32:44.677Z,100958.22
2022-09-21T00:33:16.215Z,100959.28
2022-09-21T00:33:47.800Z,100957.69
2022-09-21T00:34:19.369Z,100954.91
2022-09-21T00:34:51.435Z,100951.53
2022-09-21T00:35:23.031Z,100957.69
2022-09-21T00:35:54.579Z,100957.81
2022-09-21T00:36:26.333Z,100955.66
2022-09-21T00:36:58.066Z,100956.13
2022-09-21T00:37:29.597Z,100957.84
2022-09-21T00:38:01.792Z,100958.47
2022-09-21T00:38:33.386Z,100963.94
2022-09-21T00:39:04.892Z,100955.03
2022-09-21T00:39:36.406Z,100962.94
2022-09-21T00:40:08.153Z,100962.94
2022-09-21T00:40:39.704Z,100956.75
2022-09-21T00:41:11.314Z,100964.06
2022-09-21T00:41:42.946Z,100963.19
2022-09-21T00:42:21.551Z,100962.22
2022-09-21T00:42:53.084Z,100958.59
2022-09-21T00:43:24.669Z,100965.00
2022-09-21T00:44:08.095Z,100960.72
2022-09-21T00:44:39.599Z,100963.66
2022-09-21T00:45:11.677Z,100962.81
2022-09-21T00:45:43.369Z,100964.50
2022-09-21T00:46:33.099Z,100963.66
2022-09-21T00:47:06.738Z,100964.16
2022-09-21T00:47:39.077Z,100960.59
2022-09-21T00:48:10.616Z,100963.28
2022-09-21T00:48:42.202Z,100966.81
2022-09-21T00:49:13.739Z,100970.69
2022-09-21T00:49:45.738Z,100968.88
2022-09-21T00:50:18.042Z,100966.06
2022-09-21T00:50:50.247Z,100972.41
2022-09-21T00:51:21.802Z,100972.75
2022-09-21T00:51:53.426Z,100970.47
2022-09-21T00:52:25.111Z,100969.63
2022-09-21T00:52:57.151Z,100969.75
2022-09-21T00:53:28.834Z,100977.63
2022-09-21T00:54:04.941Z,100973.97
2022-09-21T00:54:38.229Z,100967.53
2022-09-21T00:55:11.685Z,100970.22
2022-09-21T00:55:44.079Z,100965.59
2022-09-21T00:56:15.624Z,100970.69
2022-09-21T00:56:47.167Z,100972.66
2022-09-21T00:57:19.528Z,100970.09
2022-09-21T00:57:53.011Z,100971.56
2022-09-21T00:58:26.421Z,100965.34
2022-09-21T00:58:58.040Z,100969.72
2022-09-21T00:59:30.616Z,100970.69
2022-09-21T01:00:02.665Z,100970.09
2022-09-21T01:00:34.209Z,100968.50
2022-09-21T01:01:05.827Z,100971.19
2022-09-21T01:01:37.394Z,100968.63
2022-09-21T01:02:09.074Z,100971.19
2022-09-21T01:02:40.913Z,100970.22
2022-09-21T01:03:12.726Z,100976.53
2022-09-21T01:03:44.987Z,100971.81
2022-09-21T01:04:16.510Z,100972.66
2022-09-21T01:04:48.044Z,100974.34
2022-09-21T01:05:19.660Z,100977.97
2022-09-21T01:05:51.174Z,100977.16
2022-09-21T01:06:22.676Z,100975.31
2022-09-21T01:06:54.693Z,100977.03
2022-09-21T01:07:27.126Z,100974.47
2022-09-21T01:07:59.526Z,100977.38
2022-09-21T01:08:31.128Z,100978.22
2022-09-21T01:09:02.776Z,100974.47
2022-09-21T01:09:34.310Z,100973.59
2022-09-21T01:10:13.039Z,100979.19
2022-09-21T01:10:44.614Z,100971.19
2022-09-21T01:11:28.187Z,100979.06
2022-09-21T01:12:14.898Z,100976.41
2022-09-21T01:12:49.070Z,100974.59
2022-09-21T01:13:20.572Z,100964.88
2022-09-21T01:14:11.013Z,100973.97
2022-09-21T01:15:01.438Z,100971.19
2022-09-21T01:15:45.355Z,100978.22
2022-09-21T01:16:19.055Z,100975.44
2022-09-21T01:17:09.124Z,100974.59
2022-09-21T01:17:50.738Z,100975.69
2022-09-21T01:18:22.312Z,100981.03
2022-09-21T01:18:59.060Z,100978.47
2022-09-21T01:19:40.301Z,100975.09
2022-09-21T01:20:20.101Z,100972.16
2022-09-21T01:20:51.519Z,100979.19
2022-09-21T01:21:25.314Z,100981.03
2022-09-21T01:22:05.598Z,100973.00
2022-09-21T01:22:42.796Z,100978.47
2022-09-21T01:23:29.105Z,100982.72
2022-09-21T01:24:18.990Z,100971.44
2022-09-21T01:25:09.264Z,100977.50
2022-09-21T01:25:49.714Z,100977.63
2022-09-21T01:26:35.088Z,100973.13
2022-09-21T01:27:24.549Z,100981.25
2022-09-21T01:28:14.361Z,100979.31
2022-09-21T01:29:06.977Z,100977.75
2022-09-21T01:29:42.166Z,100978.94
2022-09-21T01:30:15.917Z,100973.63
2022-09-21T01:30:49.144Z,100979.06
2022-09-21T01:31:22.235Z,100983.47
2022-09-21T01:32:13.793Z,100979.19
2022-09-21T01:32:57.437Z,100984.41
2022-09-21T01:33:30.269Z,100978.94
2022-09-21T01:34:02.500Z,100981.88
2022-09-21T01:34:44.806Z,100978.47
2022-09-21T01:35:20.434Z,100984.53
2022-09-21T01:35:56.815Z,100981.88
2022-09-21T01:36:28.641Z,100977.41
2022-09-21T01:37:01.776Z,100990.63
2022-09-21T01:37:38.221Z,100986.50
2022-09-21T01:38:35.932Z,100982.84
2022-09-21T01:39:08.603Z,100986.50
2022-09-21T01:39:40.202Z,100983.81
2022-09-21T01:40:13.270Z,100988.19
2022-09-21T01:40:46.201Z,100984.53
2022-09-21T01:41:19.959Z,100990.75
2022-09-21T01:41:51.480Z,100985.16
2022-09-21T01:42:23.102Z,100988.78
2022-09-21T01:42:54.574Z,100985.28
2022-09-21T01:43:31.402Z,100989.88
2022-09-21T01:44:10.453Z,100988.19
2022-09-21T01:44:41.968Z,100980.91
2022-09-21T01:45:13.537Z,100990.75
2022-09-21T01:45:45.980Z,100984.53
2022-09-21T01:46:18.658Z,100985.28
2022-09-21T01:46:50.164Z,100982.75
2022-09-21T01:47:21.749Z,100985.53
2022-09-21T01:47:53.369Z,100988.19
2022-09-21T01:48:25.013Z,100988.19
2022-09-21T01:48:58.152Z,100989.53
2022-09-21T01:49:34.838Z,100992.31
2022-09-21T01:50:06.647Z,100986.13
2022-09-21T01:50:40.481Z,100991.34
2022-09-21T01:51:12.518Z,100988.31
2022-09-21T01:51:45.426Z,100989.28
2022-09-21T01:52:25.016Z,100985.78
2022-09-21T01:53:00.753Z,100988.69
2022-09-21T01:53:33.503Z,100988.69
2022-09-21T01:54:07.437Z,100990.38
2022-09-21T01:54:49.563Z,100991.34
2022-09-21T01:55:23.320Z,100991.84
2022-09-21T01:56:06.812Z,100983.81
2022-09-21T01:56:41.598Z,100989.88
2022-09-21T01:57:23.673Z,100992.66
2022-09-21T01:57:58.108Z,100992.94
2022-09-21T01:58:34.240Z,100992.94
2022-09-21T01:59:17.095Z,100987.72
2022-09-21T01:59:55.658Z,100986.72
2022-09-21T02:00:27.316Z,100994.84
2022-09-21T02:00:58.965Z,100988.56
2022-09-21T02:01:30.651Z,100992.31
2022-09-21T02:02:04.858Z,100992.31
2022-09-21T02:02:47.986Z,100989.63
2022-09-21T02:03:38.922Z,100995.63
2022-09-21T02:04:11.288Z,100992.31
2022-09-21T02:04:43.043Z,100994.25
2022-09-21T02:05:14.649Z,100993.53
2022-09-21T02:05:46.181Z,100991.94
2022-09-21T02:06:18.019Z,100992.81
2022-09-21T02:06:49.584Z,100988.31
2022-09-21T02:07:21.123Z,100994.03
2022-09-21T02:07:52.663Z,100990.63
2022-09-21T02:08:24.501Z,100987.72
2022-09-21T02:08:56.077Z,100991.22
2022-09-21T02:09:27.677Z,100991.94
2022-09-21T02:09:59.778Z,100986.72
2022-09-21T02:10:39.342Z,100989.16
2022-09-21T02:11:10.948Z,100990.16
2022-09-21T02:11:42.680Z,100991.84
2022-09-21T02:12:18.745Z,100991.84
2022-09-21T02:12:53.170Z,100991.22
2022-09-21T02:13:24.788Z,100987.72
2022-09-21T02:13:56.364Z,100993.19
2022-09-21T02:14:28.040Z,100989.88
2022-09-21T02:14:59.549Z,100986.50
2022-09-21T02:15:46.471Z,100991.00
2022-09-21T02:16:26.700Z,100985.53
2022-09-21T02:17:17.191Z,100990.16
2022-09-21T02:17:54.189Z,100991.72
2022-09-21T02:18:33.784Z,101001.31
2022-09-21T02:19:08.364Z,100992.53
2022-09-21T02:19:39.869Z,100990.88
2022-09-21T02:20:11.376Z,100993.53
2022-09-21T02:20:45.992Z,100989.16
2022-09-21T02:21:23.337Z,100988.19
2022-09-21T02:22:12.047Z,100987.22
2022-09-21T02:22:46.248Z,100991.72
2022-09-21T02:23:24.403Z,100988.19
2022-09-21T02:23:58.644Z,100990.03
2022-09-21T02:24:43.570Z,100990.16
2022-09-21T02:25:29.930Z,100994.63
2022-09-21T02:26:10.378Z,100990.25
2022-09-21T02:26:53.504Z,100992.94
2022-09-21T02:27:31.023Z,100994.50
2022-09-21T02:28:06.829Z,100996.22
2022-09-21T02:28:49.362Z,100995.09
2022-09-21T02:29:23.626Z,100993.66
2022-09-21T02:30:00.996Z,100989.28
2022-09-21T02:30:33.039Z,100991.94
2022-09-21T02:31:33.668Z,100991.94
2022-09-21T02:32:06.648Z,100989.16
2022-09-21T02:32:44.218Z,100991.72
2022-09-21T02:33:20.173Z,100991.09
2022-09-21T02:33:57.012Z,100987.72
2022-09-21T02:34:36.163Z,100990.38
2022-09-21T02:35:15.561Z,100991.34
2022-09-21T02:35:51.002Z,100990.38
2022-09-21T02:36:25.020Z,100993.06
2022-09-21T02:36:58.576Z,100993.78
2022-09-21T02:37:35.671Z,100990.16
2022-09-21T02:38:09.034Z,100993.06
2022-09-21T02:38:44.499Z,100984.94
2022-09-21T02:39:16.748Z,100986.84
2022-09-21T02:39:52.955Z,100981.91
2022-09-21T02:40:31.492Z,100986.25
2022-09-21T02:41:08.682Z,100985.28
2022-09-21T02:41:45.254Z,100982.38
2022-09-21T02:42:17.336Z,100988.44
2022-09-21T02:42:48.903Z,100983.22
2022-09-21T02:43:23.307Z,100977.03
2022-09-21T02:44:11.934Z,100983.44
2022-09-21T02:44:52.622Z,100979.81
2022-09-21T02:45:27.706Z,100981.63
2022-09-21T02:46:00.285Z,100981.38
2022-09-21T02:46:31.890Z,100976.91
2022-09-21T02:47:03.623Z,100978.59
2022-09-21T02:47:36.954Z,100969.50
2022-09-21T02:48:09.622Z,100977.53
2022-09-21T02:48:43.359Z,100982.75
2022-09-21T02:49:18.161Z,100981.88
2022-09-21T02:49:51.645Z,100981.88
2022-09-21T02:50:24.308Z,100980.19
2022-09-21T02:50:56.988Z,100978.47
2022-09-21T02:51:32.110Z,100979.34
2022-09-21T02:52:05.350Z,100976.53
2022-09-21T02:52:36.923Z,100980.19
2022-09-21T02:53:09.055Z,100979.47
2022-09-21T02:53:40.577Z,100980.44
2022-09-21T02:54:12.125Z,100981.50
2022-09-21T02:54:44.606Z,100975.09
2022-09-21T02:55:16.327Z,100982.38
2022-09-21T02:55:47.921Z,100981.63
2022-09-21T02:56:19.490Z,100980.78
2022-09-21T02:56:51.008Z,100982.63
2022-09-21T02:57:22.720Z,100979.22
2022-09-21T02:57:54.357Z,100984.56
2022-09-21T02:58:26.166Z,100977.28
2022-09-21T02:58:58.842Z,100976.56
2022-09-21T02:59:30.466Z,100980.78
2022-09-21T03:00:02.151Z,100985.03
2022-09-21T03:00:34.731Z,100979.81
2022-09-21T03:01:07.024Z,100982.50
2022-09-21T03:01:39.061Z,100986.00
2022-09-21T03:02:10.988Z,100986.13
2022-09-21T03:02:43.380Z,100979.72
2022-09-21T03:03:21.706Z,100980.31
2022-09-21T03:03:53.358Z,100978.72
2022-09-21T03:04:24.902Z,100979.59
2022-09-21T03:04:56.448Z,100976.03
2022-09-21T03:05:28.008Z,100984.94
2022-09-21T03:05:59.579Z,100982.97
2022-09-21T03:06:31.069Z,100976.78
2022-09-21T03:07:02.713Z,100980.66
2022-09-21T03:07:34.273Z,100985.03
2022-09-21T03:08:05.801Z,100983.94
2022-09-21T03:08:37.356Z,100982.38
2022-09-21T03:09:09.043Z,100978.72
2022-09-21T03:09:40.586Z,100978.84
2022-09-21T03:10:12.185Z,100978.94
2022-09-21T03:10:43.882Z,100976.16
2022-09-21T03:11:18.811Z,100975.09
2022-09-21T03:11:53.041Z,100980.44
2022-09-21T03:12:24.550Z,100976.78
2022-09-21T03:12:58.658Z,100978.72
2022-09-21T03:13:30.295Z,100981.38
2022-09-21T03:14:02.210Z,100976.78
2022-09-21T03:14:33.962Z,100987.72
2022-09-21T03:15:05.842Z,100978.00
2022-09-21T03:15:37.847Z,100978.72
2022-09-21T03:16:09.568Z,100975.09
2022-09-21T03:16:41.124Z,100976.78
2022-09-21T03:17:12.638Z,100975.09
2022-09-21T03:17:44.226Z,100974.97
2022-09-21T03:18:15.691Z,100978.72
2022-09-21T03:18:47.311Z,100981.28
2022-09-21T03:19:18.831Z,100985.03
2022-09-21T03:19:50.367Z,100982.25
2022-09-21T03:20:21.966Z,100981.88
2022-09-21T03:20:53.509Z,100987.47
2022-09-21T03:21:25.132Z,100980.31
2022-09-21T03:21:56.673Z,100979.34
2022-09-21T03:22:28.345Z,100980.19
2022-09-21T03:23:00.065Z,100982.84
2022-09-21T03:23:31.692Z,100978.59
2022-09-21T03:24:03.256Z,100985.03
2022-09-21T03:24:34.733Z,100984.28
2022-09-21T03:25:06.514Z,100980.53
2022-09-21T03:25:38.138Z,100979.59
2022-09-21T03:26:09.624Z,100983.22
2022-09-21T03:26:41.213Z,100983.94
2022-09-21T03:27:15.034Z,100983.22
2022-09-21T03:27:46.638Z,100984.06
2022-09-21T03:28:18.279Z,100984.28
2022-09-21T03:28:50.107Z,100984.94
2022-09-21T03:29:21.713Z,100981.28
2022-09-21T03:29:53.277Z,100982.13
2022-09-21T03:30:25.243Z,100986.00
2022-09-21T03:30:56.778Z,100984.06
2022-09-21T03:31:28.352Z,100989.50
2022-09-21T03:31:59.899Z,100989.63
2022-09-21T03:32:31.431Z,100986.00
2022-09-21T03:33:02.953Z,100986.84
2022-09-21T03:33:34.496Z,100985.88
2022-09-21T03:34:05.968Z,100988.44
2022-09-21T03:34:37.451Z,100986.72
2022-09-21T03:35:09.169Z,100987.72
2022-09-21T03:35:40.978Z,100985.75
2022-09-21T03:36:12.493Z,100991.34
2022-09-21T03:36:44.202Z,100982.38
2022-09-21T03:37:15.669Z,100983.34
2022-09-21T03:37:47.319Z,100991.34
2022-09-21T03:38:19.198Z,100986.72
2022-09-21T03:38:50.702Z,100991.34
2022-09-21T03:39:22.248Z,100988.66
2022-09-21T03:39:53.798Z,100987.59
2022-09-21T03:40:25.378Z,100988.31
2022-09-21T03:40:56.989Z,100992.81
2022-09-21T03:41:28.504Z,100983.81
2022-09-21T03:42:00.086Z,100991.81
2022-09-21T03:42:31.712Z,100996.44
2022-09-21T03:43:03.275Z,100993.66
2022-09-21T03:43:34.849Z,100991.72
2022-09-21T03:44:06.429Z,100990.03
2022-09-21T03:44:37.942Z,100981.38
2022-09-21T03:45:09.828Z,100985.16
2022-09-21T03:45:41.572Z,100990.38
2022-09-21T03:46:13.255Z,100992.81
2022-09-21T03:46:44.865Z,100994.63
2022-09-21T03:47:16.409Z,100992.69
2022-09-21T03:47:48.123Z,100990.03
2022-09-21T03:48:19.665Z,100988.06
2022-09-21T03:48:51.199Z,100994.50
2022-09-21T03:49:22.760Z,100993.66
2022-09-21T03:49:54.262Z,100984.06
2022-09-21T03:50:26.100Z,100994.72
2022-09-21T03:50:57.604Z,100997.41
2022-09-21T03:51:29.355Z,100990.38
2022-09-21T03:52:00.964Z,100991.81
2022-09-21T03:52:32.536Z,100994.50
2022-09-21T03:53:04.148Z,100987.97
2022-09-21T03:53:35.672Z,100995.97
2022-09-21T03:54:07.199Z,100994.50
2022-09-21T03:54:38.794Z,100993.78
2022-09-21T03:55:10.451Z,100989.50
2022-09-21T03:55:42.109Z,100991.34
2022-09-21T03:56:13.645Z,100988.56
2022-09-21T03:56:45.221Z,100993.28
2022-09-21T03:57:16.814Z,100992.06
2022-09-21T03:57:48.450Z,100994.50
2022-09-21T03:58:20.048Z,100991.00
2022-09-21T03:58:51.683Z,100990.38
2022-09-21T03:59:23.219Z,100986.72
2022-09-21T03:59:54.795Z,100993.91
2022-09-21T04:00:26.337Z,100989.16
2022-09-21T04:01:01.230Z,100991.81
2022-09-21T04:01:32.723Z,100991.09
2022-09-21T04:02:04.424Z,100987.72
2022-09-21T04:02:36.574Z,100989.63
2022-09-21T04:03:08.234Z,100993.41
2022-09-21T04:03:39.765Z,100995.72
2022-09-21T04:04:11.315Z,100991.09
2022-09-21T04:04:42.881Z,100994.72
2022-09-21T04:05:14.801Z,100999.34
2022-09-21T04:05:46.306Z,100998.50
2022-09-21T04:06:17.919Z,100993.66
2022-09-21T04:06:49.555Z,100989.16
2022-09-21T04:07:21.102Z,100991.09
2022-09-21T04:07:52.975Z,100988.31
2022-09-21T04:08:24.583Z,100988.31
2022-09-21T04:08:56.145Z,100988.44
2022-09-21T04:09:27.709Z,100990.38
2022-09-21T04:09:59.203Z,100985.75
2022-09-21T04:10:30.832Z,100997.28
2022-09-21T04:11:02.343Z,100989.41
2022-09-21T04:11:34.088Z,100987.47
2022-09-21T04:12:05.718Z,100995.50
2022-09-21T04:12:37.314Z,100991.81
2022-09-21T04:13:09.048Z,100991.00
2022-09-21T04:13:40.580Z,100995.59
2022-09-21T04:14:12.446Z,100992.06
2022-09-21T04:14:43.952Z,100992.69
2022-09-21T04:15:16.348Z,100991.81
2022-09-21T04:15:47.977Z,100992.69
2022-09-21T04:16:19.500Z,100987.22
2022-09-21T04:16:51.103Z,100990.03
2022-09-21T04:17:22.830Z,100991.59
2022-09-21T04:17:54.582Z,100984.41
2022-09-21T04:18:26.158Z,100988.91
2022-09-21T04:18:57.668Z,100984.53
2022-09-21T04:19:29.320Z,100988.31
2022-09-21T04:20:01.022Z,100990.25
2022-09-21T04:20:32.607Z,100984.94
2022-09-21T04:21:04.758Z,100988.56
2022-09-21T04:21:36.399Z,100991.09
2022-09-21T04:22:08.305Z,100988.31
2022-09-21T04:22:43.301Z,100991.22
2022-09-21T04:23:15.369Z,100983.44
2022-09-21T04:23:46.961Z,100990.13
2022-09-21T04:24:18.579Z,100981.38
2022-09-21T04:24:50.221Z,100988.44
2022-09-21T04:25:21.839Z,100987.34
2022-09-21T04:25:53.748Z,100989.91
2022-09-21T04:26:26.196Z,100989.03
2022-09-21T04:26:57.807Z,100987.59
2022-09-21T04:27:29.364Z,100982.25
2022-09-21T04:28:01.008Z,100986.72
2022-09-21T04:28:32.491Z,100993.03
2022-09-21T04:29:04.125Z,100990.13
2022-09-21T04:29:35.697Z,100990.63
2022-09-21T04:30:07.533Z,100985.16
2022-09-21T04:30:39.081Z,100989.75
2022-09-21T04:31:10.716Z,100986.59
2022-09-21T04:31:42.430Z,100987.34
2022-09-21T04:32:14.124Z,100990.03
2022-09-21T04:32:45.816Z,100989.16
2022-09-21T04:33:17.390Z,100989.63
2022-09-21T04:33:49.550Z,100986.00
2022-09-21T04:34:21.183Z,100990.16
2022-09-21T04:34:52.807Z,100993.06
2022-09-21T04:35:24.385Z,100982.84
2022-09-21T04:35:56.056Z,100993.53
2022-09-21T04:36:28.104Z,100987.97
2022-09-21T04:36:59.679Z,100993.41
2022-09-21T04:37:31.179Z,100988.19
2022-09-21T04:38:02.722Z,100992.56
2022-09-21T04:38:34.260Z,100988.78
2022-09-21T04:39:05.843Z,100995.84
2022-09-21T04:39:37.421Z,100994.13
2022-09-21T04:40:09.150Z,100989.91
2022-09-21T04:40:40.801Z,100994.13
2022-09-21T04:41:12.464Z,100989.75
2022-09-21T04:41:43.957Z,100991.81
2022-09-21T04:42:15.558Z,100990.97
2022-09-21T04:42:50.675Z,100995.72
2022-09-21T04:43:22.749Z,100988.66
2022-09-21T04:43:54.436Z,100993.03
2022-09-21T04:44:26.195Z,100994.84
2022-09-21T04:44:57.725Z,100998.16
2022-09-21T04:45:29.328Z,100997.66
2022-09-21T04:46:07.551Z,100988.78
2022-09-21T04:46:39.101Z,101001.19
2022-09-21T04:47:10.634Z,101003.72
2022-09-21T04:47:42.169Z,100999.47
2022-09-21T04:48:13.826Z,101002.25
2022-09-21T04:48:45.477Z,101000.19
2022-09-21T04:49:16.990Z,101003.84
2022-09-21T04:49:48.552Z,100996.44
2022-09-21T04:50:20.096Z,101003.72
2022-09-21T04:50:51.666Z,101000.94
2022-09-21T04:51:23.255Z,101002.97
2022-09-21T04:51:54.838Z,100995.97
2022-09-21T04:52:26.343Z,101000.06
2022-09-21T04:52:57.951Z,100996.44
2022-09-21T04:53:29.889Z,100995.97
2022-09-21T04:54:01.608Z,101000.19
2022-09-21T04:54:33.131Z,101001.19
2022-09-21T04:55:04.922Z,100998.41
2022-09-21T04:55:36.508Z,101001.91
2022-09-21T04:56:08.276Z,100999.47
2022-09-21T04:56:39.816Z,101007.59
2022-09-21T04:57:11.458Z,101006.53
2022-09-21T04:57:42.940Z,101000.19
2022-09-21T04:58:14.456Z,100999.34
2022-09-21T04:58:45.945Z,101002.88
2022-09-21T04:59:17.487Z,101008.31
2022-09-21T04:59:48.990Z,100999.34
2022-09-21T05:00:20.552Z,101004.69
2022-09-21T05:00:52.453Z,100999.22
2022-09-21T05:01:24.054Z,101000.72
2022-09-21T05:01:55.644Z,101005.06
2022-09-21T05:02:27.184Z,101002.38
2022-09-21T05:02:58.715Z,101001.66
2022-09-21T05:03:30.394Z,101007.97
2022-09-21T05:04:02.074Z,101004.56
2022-09-21T05:04:33.662Z,100999.34
2022-09-21T05:05:05.552Z,101005.53
2022-09-21T05:05:37.071Z,101008.31
2022-09-21T05:06:08.732Z,101010.63
2022-09-21T05:06:40.301Z,101003.72
2022-09-21T05:07:11.901Z,101005.41
2022-09-21T05:07:43.485Z,101008.84
2022-09-21T05:08:15.281Z,101006.41
2022-09-21T05:08:46.759Z,101008.31
2022-09-21T05:09:18.374Z,101007.47
2022-09-21T05:09:49.927Z,101002.97
2022-09-21T05:10:21.441Z,101013.53
2022-09-21T05:10:53.088Z,101010.03
2022-09-21T05:11:24.769Z,101006.63
2022-09-21T05:11:56.272Z,101008.84
2022-09-21T05:12:27.914Z,101009.91
2022-09-21T05:12:59.465Z,101008.97
2022-09-21T05:13:30.994Z,101012.47
2022-09-21T05:14:02.676Z,101017.09
2022-09-21T05:14:34.156Z,101013.31
2022-09-21T05:15:06.097Z,101016.09
2022-09-21T05:15:38.006Z,101018.66
2022-09-21T05:16:09.690Z,101014.41
2022-09-21T05:16:41.284Z,101020.81
2022-09-21T05:17:12.861Z,101013.41
2022-09-21T05:17:44.469Z,101014.28
2022-09-21T05:18:16.060Z,101020.47
2022-09-21T05:18:47.621Z,101019.50
2022-09-21T05:19:19.272Z,101011.88
2022-09-21T05:19:50.943Z,101016.31
2022-09-21T05:20:22.483Z,101018.28
2022-09-21T05:20:57.191Z,101023.16
2022-09-21T05:21:28.829Z,101021.44
2022-09-21T05:22:00.370Z,101021.44
2022-09-21T05:22:31.932Z,101021.56
2022-09-21T05:23:03.619Z,101021.66
2022-09-21T05:23:35.544Z,101023.16
2022-09-21T05:24:07.108Z,101027.75
2022-09-21T05:24:38.657Z,101021.56
2022-09-21T05:25:10.294Z,101026.06
2022-09-21T05:25:41.799Z,101033.22
2022-09-21T05:26:13.576Z,101024.22
2022-09-21T05:26:45.135Z,101034.19
2022-09-21T05:27:16.844Z,101028.97
2022-09-21T05:27:48.477Z,101025.56
2022-09-21T05:28:20.128Z,101033.47
2022-09-21T05:28:51.795Z,101028.13
2022-09-21T05:29:23.554Z,101035.00
2022-09-21T05:29:55.187Z,101026.28
2022-09-21T05:30:26.933Z,101031.50
2022-09-21T05:31:16.652Z,101032.47
2022-09-21T05:31:51.876Z,101033.09
2022-09-21T05:32:41.804Z,101034.91
2022-09-21T05:33:13.991Z,101033.34
2022-09-21T05:33:55.105Z,101033.69
2022-09-21T05:34:37.738Z,101031.13
2022-09-21T05:35:29.603Z,101034.41
2022-09-21T05:36:07.182Z,101034.19
2022-09-21T05:36:41.634Z,101036.84
2022-09-21T05:37:24.934Z,101034.19
2022-09-21T05:38:13.121Z,101039.63
2022-09-21T05:38:44.881Z,101036.63
2022-09-21T05:39:16.565Z,101042.78
2022-09-21T05:39:48.255Z,101041.22
2022-09-21T05:40:20.177Z,101033.22
2022-09-21T05:40:51.871Z,101042.31
2022-09-21T05:41:23.597Z,101038.19
2022-09-21T05:41:55.245Z,101041.34
2022-09-21T05:42:27.036Z,101041.34
2022-09-21T05:42:58.717Z,101047.28
2022-09-21T05:43:30.551Z,101047.53
2022-09-21T05:44:02.380Z,101044.75
2022-09-21T05:44:34.284Z,101042.06
2022-09-21T05:45:06.219Z,101036.25
2022-09-21T05:45:38.080Z,101039.50
2022-09-21T05:46:18.291Z,101041.94
2022-09-21T05:46:53.954Z,101039.41
2022-09-21T05:47:37.683Z,101045.47
2022-09-21T05:48:19.394Z,101050.69
2022-09-21T05:49:00.664Z,101038.31
2022-09-21T05:49:50.886Z,101043.16
2022-09-21T05:50:31.262Z,101046.69
2022-09-21T05:51:04.071Z,101048.63
2022-09-21T05:52:07.963Z,101049.72
2022-09-21T05:52:48.031Z,101048.47
2022-09-21T05:53:23.268Z,101045.97
2022-09-21T05:54:12.385Z,101048.63
2022-09-21T05:54:51.062Z,101047.66
2022-09-21T05:55:30.682Z,101045.81
2022-09-21T05:56:07.259Z,101051.03
2022-09-21T05:56:42.572Z,101045.69
2022-09-21T05:57:19.951Z,101049.59
2022-09-21T05:57:55.540Z,101054.09
2022-09-21T05:58:36.234Z,101045.44
2022-09-21T05:59:16.519Z,101045.31
2022-09-21T05:59:57.674Z,101054.44
2022-09-21T06:00:31.318Z,101038.41
2022-09-21T06:01:21.184Z,101056.75
2022-09-21T06:01:57.654Z,101055.03
2022-09-21T06:02:29.175Z,101052.75
2022-09-21T06:03:20.513Z,101046.81
2022-09-21T06:03:52.059Z,101049.72
2022-09-21T06:04:23.745Z,101047.16
2022-09-21T06:04:56.418Z,101054.09
2022-09-21T06:05:28.001Z,101046.91
2022-09-21T06:05:59.422Z,101046.09
2022-09-21T06:06:30.908Z,101049.81
2022-09-21T06:07:02.535Z,101051.53
2022-09-21T06:07:34.070Z,101051.41
2022-09-21T06:08:05.527Z,101054.31
2022-09-21T06:08:36.982Z,101043.66
2022-09-21T06:09:08.574Z,101053.44
2022-09-21T06:09:43.038Z,101056.13
2022-09-21T06:10:15.002Z,101043.88
2022-09-21T06:10:46.568Z,101049.22
2022-09-21T06:11:18.267Z,101055.28
2022-09-21T06:11:49.729Z,101056.13
2022-09-21T06:12:21.344Z,101050.66
2022-09-21T06:12:52.881Z,101053.97
2022-09-21T06:13:24.466Z,101048.88
2022-09-21T06:13:56.045Z,101050.53
2022-09-21T06:14:27.562Z,101057.72
2022-09-21T06:14:59.081Z,101053.97
2022-09-21T06:15:30.799Z,101054.22
2022-09-21T06:16:02.688Z,101061.34
2022-09-21T06:16:40.614Z,101058.66
2022-09-21T06:17:12.307Z,101057.84
2022-09-21T06:17:43.915Z,101050.91
2022-09-21T06:18:17.991Z,101055.41
2022-09-21T06:18:49.945Z,101061.47
2022-09-21T06:19:21.550Z,101056.25
2022-09-21T06:19:53.478Z,101057.84
2022-09-21T06:20:25.121Z,101058.66
2022-09-21T06:20:56.671Z,101057.94
2022-09-21T06:21:28.211Z,101055.28
2022-09-21T06:21:59.792Z,101062.31
2022-09-21T06:22:31.442Z,101058.78
2022-09-21T06:23:06.513Z,101062.31
2022-09-21T06:23:38.264Z,101062.22